General Aviation Weather

Text Reports

Enter one or more of the following location identifiers separated by a space:

Zip Code, Four-Character ICAO or Three-Character IATA airport codes.

METAR - Aviation Routine Weather Report
BGAA - Aasiaat,
Updated at 1:20 AM GMT on July 10, 2014 (11:20 PM WGST):
METAR BGAA 100120Z AUTO 22009KT 190V250 9999NDV SCT007/// BKN021/// BKN120/// 05/04 Q1016
TAF - Terminal Area Forecast
BGAA - Aasiaat,
Updated at 1:20 AM GMT on July 10, 2014 (11:20 PM WGST):
No TAF is currently available for this location.
Decoded:
No decoded TAF is available.
PIREP - Pilot Weather Report
BGAA - Aasiaat,
Updated at 1:20 AM GMT on July 10, 2014 (11:20 PM WGST):
No PIREP is currently available for this location.
AIRMET - Airmens Meteorological Information
BGAA - Aasiaat,
Updated at 1:20 AM GMT on July 10, 2014 (11:20 PM WGST):
No AIRMET is currently available for this location.
SIGMET - Significant Meteorological Information
BGAA - Aasiaat,
Updated at 1:20 AM GMT on July 10, 2014 (11:20 PM WGST):
No SIGMET is currently available for this location.
NOTAM - Notice to Airmen
BGAA - Aasiaat,
Updated at 1:20 AM GMT on July 10, 2014 (11:20 PM WGST):
No NOTAM is currently available for this location.
Forecast Area
BGAA - Aasiaat,
Updated at 1:20 AM GMT on July 10, 2014 (11:20 PM WGST):
No NOTAM is currently available for this location.
Aviation Weather Maps